sensor_id;sensor_type;location;lat;lon;timestamp;temperature;humidity
14014;DHT22;49110;52.584;13.408;2023-07-09T07:40:10;23.10;87.70
14014;DHT22;49110;52.584;13.408;2023-07-09T07:41:11;23.00;88.40
14014;DHT22;49110;52.584;13.408;2023-07-09T07:42:11;23.00;88.10
14014;DHT22;49110;52.584;13.408;2023-07-09T07:43:12;23.10;88.60
14014;DHT22;49110;52.584;13.408;2023-07-09T07:44:12;23.10;89.10
14014;DHT22;49110;52.584;13.408;2023-07-09T07:45:13;23.20;87.80
14014;DHT22;49110;52.584;13.408;2023-07-09T07:46:13;23.30;86.80
14014;DHT22;49110;52.584;13.408;2023-07-09T07:47:14;23.40;86.70
14014;DHT22;49110;52.584;13.408;2023-07-09T07:48:14;23.50;85.60
14014;DHT22;49110;52.584;13.408;2023-07-09T07:49:15;23.60;86.00
14014;DHT22;49110;52.584;13.408;2023-07-09T07:50:16;23.70;85.30
14014;DHT22;49110;52.584;13.408;2023-07-09T07:51:16;23.80;85.40
14014;DHT22;49110;52.584;13.408;2023-07-09T07:52:17;23.80;85.90
14014;DHT22;49110;52.584;13.408;2023-07-09T07:53:17;23.90;85.20
14014;DHT22;49110;52.584;13.408;2023-07-09T07:54:18;24.00;84.70
14014;DHT22;49110;52.584;13.408;2023-07-09T07:55:18;24.10;84.10
14014;DHT22;49110;52.584;13.408;2023-07-09T07:56:20;24.20;84.50
14014;DHT22;49110;52.584;13.408;2023-07-09T07:57:23;24.10;84.50
14014;DHT22;49110;52.584;13.408;2023-07-09T07:58:24;24.30;84.70
14014;DHT22;49110;52.584;13.408;2023-07-09T07:59:25;24.30;84.00
14014;DHT22;49110;52.584;13.408;2023-07-09T08:00:26;24.30;84.00
14014;DHT22;49110;52.584;13.408;2023-07-09T08:01:26;24.30;84.10
14014;DHT22;49110;52.584;13.408;2023-07-09T08:02:27;24.30;83.70
14014;DHT22;49110;52.584;13.408;2023-07-09T08:03:27;24.40;83.60
14014;DHT22;49110;52.584;13.408;2023-07-09T08:04:29;24.50;83.70
14014;DHT22;49110;52.584;13.408;2023-07-09T08:05:29;24.50;83.80
14014;DHT22;49110;52.584;13.408;2023-07-09T08:06:30;24.60;83.60
14014;DHT22;49110;52.584;13.408;2023-07-09T08:07:31;24.60;83.40
14014;DHT22;49110;52.584;13.408;2023-07-09T08:08:32;24.70;83.40
14014;DHT22;49110;52.584;13.408;2023-07-09T08:09:32;24.70;81.90
14014;DHT22;49110;52.584;13.408;2023-07-09T08:10:33;24.80;82.80
14014;DHT22;49110;52.584;13.408;2023-07-09T08:11:34;24.80;83.10
14014;DHT22;49110;52.584;13.408;2023-07-09T08:12:34;24.90;83.00
14014;DHT22;49110;52.584;13.408;2023-07-09T08:13:35;25.00;81.90
14014;DHT22;49110;52.584;13.408;2023-07-09T08:14:36;25.00;80.60
14014;DHT22;49110;52.584;13.408;2023-07-09T08:15:37;25.00;80.50
14014;DHT22;49110;52.584;13.408;2023-07-09T08:16:38;25.00;80.60
14014;DHT22;49110;52.584;13.408;2023-07-09T08:17:39;25.00;80.60
14014;DHT22;49110;52.584;13.408;2023-07-09T08:18:39;25.00;80.60
14014;DHT22;49110;52.584;13.408;2023-07-09T08:19:53;25.00;81.50
14014;DHT22;49110;52.584;13.408;2023-07-09T08:20:54;25.10;81.30
14014;DHT22;49110;52.584;13.408;2023-07-09T08:21:55;25.10;81.30
14014;DHT22;49110;52.584;13.408;2023-07-09T08:22:55;25.10;80.50
14014;DHT22;49110;52.584;13.408;2023-07-09T08:23:56;25.20;78.70
14014;DHT22;49110;52.584;13.408;2023-07-09T08:24:56;25.30;78.60
14014;DHT22;49110;52.584;13.408;2023-07-09T08:25:58;25.30;78.50
14014;DHT22;49110;52.584;13.408;2023-07-09T08:26:59;25.40;78.70
14014;DHT22;49110;52.584;13.408;2023-07-09T08:28:00;25.40;78.50
14014;DHT22;49110;52.584;13.408;2023-07-09T08:29:01;25.40;78.80
14014;DHT22;49110;52.584;13.408;2023-07-09T08:30:02;25.40;78.90
14014;DHT22;49110;52.584;13.408;2023-07-09T08:31:02;25.50;77.50
14014;DHT22;49110;52.584;13.408;2023-07-09T08:32:03;25.40;76.10
14014;DHT22;49110;52.584;13.408;2023-07-09T08:33:04;25.40;76.40
14014;DHT22;49110;52.584;13.408;2023-07-09T08:34:06;25.40;77.20
14014;DHT22;49110;52.584;13.408;2023-07-09T08:35:07;25.40;77.50
14014;DHT22;49110;52.584;13.408;2023-07-09T08:36:10;25.40;77.60
14014;DHT22;49110;52.584;13.408;2023-07-09T08:37:11;25.40;78.10
14014;DHT22;49110;52.584;13.408;2023-07-09T08:38:11;25.40;78.50
14014;DHT22;49110;52.584;13.408;2023-07-09T08:39:12;25.40;78.90
14014;DHT22;49110;52.584;13.408;2023-07-09T08:40:15;25.40;79.40
14014;DHT22;49110;52.584;13.408;2023-07-09T08:42:36;25.40;79.50
14014;DHT22;49110;52.584;13.408;2023-07-09T08:44:03;25.50;78.50
14014;DHT22;49110;52.584;13.408;2023-07-09T08:46:59;25.50;79.00
14014;DHT22;49110;52.584;13.408;2023-07-09T08:48:07;25.50;77.80
14014;DHT22;49110;52.584;13.408;2023-07-09T08:49:18;25.50;77.70
14014;DHT22;49110;52.584;13.408;2023-07-09T08:50:22;25.60;78.30
14014;DHT22;49110;52.584;13.408;2023-07-09T08:51:38;25.60;78.90
14014;DHT22;49110;52.584;13.408;2023-07-09T08:52:42;25.60;79.10
14014;DHT22;49110;52.584;13.408;2023-07-09T08:53:50;25.60;79.20
14014;DHT22;49110;52.584;13.408;2023-07-09T08:54:54;25.70;79.40
14014;DHT22;49110;52.584;13.408;2023-07-09T08:55:55;25.70;79.50
14014;DHT22;49110;52.584;13.408;2023-07-09T08:57:00;25.70;79.70
14014;DHT22;49110;52.584;13.408;2023-07-09T08:58:23;25.70;79.00
14014;DHT22;49110;52.584;13.408;2023-07-09T08:59:26;25.70;78.20
14014;DHT22;49110;52.584;13.408;2023-07-09T09:00:42;25.80;78.30
14014;DHT22;49110;52.584;13.408;2023-07-09T09:01:51;25.80;78.40
14014;DHT22;49110;52.584;13.408;2023-07-09T09:02:58;25.90;79.20
14014;DHT22;49110;52.584;13.408;2023-07-09T09:04:44;25.80;78.30
14014;DHT22;49110;52.584;13.408;2023-07-09T09:05:26;25.90;77.30
14014;DHT22;49110;52.584;13.408;2023-07-09T09:06:29;25.90;77.30
14014;DHT22;49110;52.584;13.408;2023-07-09T09:07:41;25.90;75.30
14014;DHT22;49110;52.584;13.408;2023-07-09T09:09:12;25.90;75.30
14014;DHT22;49110;52.584;13.408;2023-07-09T09:10:18;26.00;75.90
14014;DHT22;49110;52.584;13.408;2023-07-09T09:12:38;26.00;76.70
14014;DHT22;49110;52.584;13.408;2023-07-09T09:13:41;26.00;76.30
14014;DHT22;49110;52.584;13.408;2023-07-09T09:14:46;26.00;76.60
14014;DHT22;49110;52.584;13.408;2023-07-09T09:15:49;26.00;76.70
14014;DHT22;49110;52.584;13.408;2023-07-09T09:16:51;26.00;76.50
14014;DHT22;49110;52.584;13.408;2023-07-09T09:17:54;26.00;75.90
14014;DHT22;49110;52.584;13.408;2023-07-09T09:19:01;26.10;75.30
14014;DHT22;49110;52.584;13.408;2023-07-09T09:20:06;26.10;74.80
14014;DHT22;49110;52.584;13.408;2023-07-09T09:21:23;26.10;75.40
14014;DHT22;49110;52.584;13.408;2023-07-09T09:22:50;26.10;74.50
14014;DHT22;49110;52.584;13.408;2023-07-09T09:23:56;26.20;74.50
14014;DHT22;49110;52.584;13.408;2023-07-09T09:25:27;26.20;74.10
14014;DHT22;49110;52.584;13.408;2023-07-09T09:26:32;26.20;73.40
14014;DHT22;49110;52.584;13.408;2023-07-09T09:27:33;26.30;72.50
14014;DHT22;49110;52.584;13.408;2023-07-09T09:28:37;26.30;72.30
14014;DHT22;49110;52.584;13.408;2023-07-09T09:29:37;26.30;70.70
14014;DHT22;49110;52.584;13.408;2023-07-09T09:30:38;26.30;68.40
14014;DHT22;49110;52.584;13.408;2023-07-09T09:31:38;26.30;68.70
14014;DHT22;49110;52.584;13.408;2023-07-09T09:32:43;26.40;69.00
14014;DHT22;49110;52.584;13.408;2023-07-09T09:33:46;26.30;70.00
14014;DHT22;49110;52.584;13.408;2023-07-09T09:34:47;26.40;70.70
14014;DHT22;49110;52.584;13.408;2023-07-09T09:35:48;26.40;70.60
14014;DHT22;49110;52.584;13.408;2023-07-09T09:36:49;26.40;70.90
14014;DHT22;49110;52.584;13.408;2023-07-09T09:37:52;26.40;70.90
14014;DHT22;49110;52.584;13.408;2023-07-09T09:38:53;26.40;71.00
14014;DHT22;49110;52.584;13.408;2023-07-09T09:39:54;26.50;70.10
14014;DHT22;49110;52.584;13.408;2023-07-09T09:40:59;26.50;70.30
14014;DHT22;49110;52.584;13.408;2023-07-09T09:42:01;26.50;71.00
14014;DHT22;49110;52.584;13.408;2023-07-09T09:43:02;26.60;71.20
14014;DHT22;49110;52.584;13.408;2023-07-09T09:44:03;26.60;70.30
14014;DHT22;49110;52.584;13.408;2023-07-09T09:45:11;26.70;69.80
14014;DHT22;49110;52.584;13.408;2023-07-09T09:46:23;26.70;69.30
14014;DHT22;49110;52.584;13.408;2023-07-09T09:47:27;26.60;70.10
14014;DHT22;49110;52.584;13.408;2023-07-09T09:48:32;26.60;70.60
14014;DHT22;49110;52.584;13.408;2023-07-09T09:49:42;26.60;70.90
14014;DHT22;49110;52.584;13.408;2023-07-09T09:50:44;26.60;70.40
14014;DHT22;49110;52.584;13.408;2023-07-09T09:51:47;26.60;70.40
14014;DHT22;49110;52.584;13.408;2023-07-09T09:52:49;26.70;69.90
14014;DHT22;49110;52.584;13.408;2023-07-09T09:53:55;26.70;68.20
14014;DHT22;49110;52.584;13.408;2023-07-09T09:55:03;26.80;68.20
14014;DHT22;49110;52.584;13.408;2023-07-09T09:56:10;26.80;67.60
14014;DHT22;49110;52.584;13.408;2023-07-09T09:57:20;26.80;67.90
14014;DHT22;49110;52.584;13.408;2023-07-09T09:58:26;26.80;67.60
14014;DHT22;49110;52.584;13.408;2023-07-09T09:59:31;26.80;69.10
14014;DHT22;49110;52.584;13.408;2023-07-09T10:00:32;26.80;69.60
14014;DHT22;49110;52.584;13.408;2023-07-09T10:01:35;26.90;69.30
14014;DHT22;49110;52.584;13.408;2023-07-09T10:02:39;26.80;69.90
14014;DHT22;49110;52.584;13.408;2023-07-09T10:03:42;26.80;70.50
14014;DHT22;49110;52.584;13.408;2023-07-09T10:04:45;26.80;70.10
14014;DHT22;49110;52.584;13.408;2023-07-09T10:05:51;26.90;68.00
14014;DHT22;49110;52.584;13.408;2023-07-09T10:06:56;27.00;68.70
14014;DHT22;49110;52.584;13.408;2023-07-09T10:08:09;27.00;69.20
14014;DHT22;49110;52.584;13.408;2023-07-09T10:10:47;27.00;70.40
14014;DHT22;49110;52.584;13.408;2023-07-09T10:11:59;27.00;70.90
14014;DHT22;49110;52.584;13.408;2023-07-09T10:13:11;27.00;70.30
14014;DHT22;49110;52.584;13.408;2023-07-09T10:14:35;27.00;69.20
14014;DHT22;49110;52.584;13.408;2023-07-09T10:16:09;27.10;68.90
14014;DHT22;49110;52.584;13.408;2023-07-09T10:17:15;27.10;67.90
14014;DHT22;49110;52.584;13.408;2023-07-09T10:18:29;27.10;68.70
14014;DHT22;49110;52.584;13.408;2023-07-09T10:19:59;27.20;67.90
14014;DHT22;49110;52.584;13.408;2023-07-09T10:21:07;27.20;67.60
14014;DHT22;49110;52.584;13.408;2023-07-09T10:22:22;27.20;67.90
14014;DHT22;49110;52.584;13.408;2023-07-09T10:23:29;27.10;67.90
14014;DHT22;49110;52.584;13.408;2023-07-09T10:24:49;27.30;67.60
14014;DHT22;49110;52.584;13.408;2023-07-09T10:26:00;27.30;66.90
14014;DHT22;49110;52.584;13.408;2023-07-09T10:27:12;27.30;67.00
14014;DHT22;49110;52.584;13.408;2023-07-09T10:30:03;27.30;67.40
14014;DHT22;49110;52.584;13.408;2023-07-09T10:31:38;27.40;68.00
14014;DHT22;49110;52.584;13.408;2023-07-09T10:33:07;27.30;68.00
14014;DHT22;49110;52.584;13.408;2023-07-09T10:37:00;27.40;67.30
14014;DHT22;49110;52.584;13.408;2023-07-09T10:39:30;27.40;66.70
14014;DHT22;49110;52.584;13.408;2023-07-09T10:40:45;27.40;67.10
14014;DHT22;49110;52.584;13.408;2023-07-09T10:41:49;27.40;67.10
14014;DHT22;49110;52.584;13.408;2023-07-09T10:42:54;27.40;67.30
14014;DHT22;49110;52.584;13.408;2023-07-09T10:44:20;27.40;67.60
14014;DHT22;49110;52.584;13.408;2023-07-09T10:45:40;27.50;67.90
14014;DHT22;49110;52.584;13.408;2023-07-09T10:46:44;27.60;67.00
14014;DHT22;49110;52.584;13.408;2023-07-09T10:49:16;27.70;66.00
14014;DHT22;49110;52.584;13.408;2023-07-09T10:50:33;27.60;66.10
14014;DHT22;49110;52.584;13.408;2023-07-09T10:51:41;27.60;66.20
14014;DHT22;49110;52.584;13.408;2023-07-09T10:52:46;27.60;67.00
14014;DHT22;49110;52.584;13.408;2023-07-09T10:53:56;27.60;68.00
14014;DHT22;49110;52.584;13.408;2023-07-09T10:56:12;27.60;68.30
14014;DHT22;49110;52.584;13.408;2023-07-09T11:00:19;27.70;67.70
14014;DHT22;49110;52.584;13.408;2023-07-09T11:01:28;27.70;68.40
14014;DHT22;49110;52.584;13.408;2023-07-09T11:02:33;27.70;68.50
14014;DHT22;49110;52.584;13.408;2023-07-09T11:03:44;27.70;69.10
14014;DHT22;49110;52.584;13.408;2023-07-09T11:04:59;27.70;68.90
14014;DHT22;49110;52.584;13.408;2023-07-09T11:06:01;27.80;68.10
14014;DHT22;49110;52.584;13.408;2023-07-09T11:07:12;27.80;67.70
14014;DHT22;49110;52.584;13.408;2023-07-09T11:08:18;27.80;67.70
14014;DHT22;49110;52.584;13.408;2023-07-09T11:09:33;27.90;68.10
14014;DHT22;49110;52.584;13.408;2023-07-09T11:10:44;27.90;68.50
14014;DHT22;49110;52.584;13.408;2023-07-09T11:11:49;27.90;68.50
14014;DHT22;49110;52.584;13.408;2023-07-09T11:14:01;28.00;67.60
14014;DHT22;49110;52.584;13.408;2023-07-09T11:15:14;28.10;66.60
14014;DHT22;49110;52.584;13.408;2023-07-09T11:16:25;28.10;66.30
14014;DHT22;49110;52.584;13.408;2023-07-09T11:17:29;28.10;67.10
14014;DHT22;49110;52.584;13.408;2023-07-09T11:18:32;28.00;67.20
14014;DHT22;49110;52.584;13.408;2023-07-09T11:19:42;28.10;67.20
14014;DHT22;49110;52.584;13.408;2023-07-09T11:20:45;28.00;66.50
14014;DHT22;49110;52.584;13.408;2023-07-09T11:22:15;28.10;67.10
14014;DHT22;49110;52.584;13.408;2023-07-09T11:23:18;28.00;67.10
14014;DHT22;49110;52.584;13.408;2023-07-09T11:24:51;28.00;67.50
14014;DHT22;49110;52.584;13.408;2023-07-09T11:26:35;28.10;67.90
14014;DHT22;49110;52.584;13.408;2023-07-09T11:27:28;28.10;67.90
14014;DHT22;49110;52.584;13.408;2023-07-09T11:28:39;28.10;67.10
14014;DHT22;49110;52.584;13.408;2023-07-09T11:31:34;28.10;65.90
14014;DHT22;49110;52.584;13.408;2023-07-09T11:32:45;28.20;66.00
14014;DHT22;49110;52.584;13.408;2023-07-09T11:33:48;28.20;66.40
14014;DHT22;49110;52.584;13.408;2023-07-09T11:34:48;28.10;66.70
14014;DHT22;49110;52.584;13.408;2023-07-09T11:35:51;28.10;66.50
14014;DHT22;49110;52.584;13.408;2023-07-09T11:37:56;28.20;66.30
14014;DHT22;49110;52.584;13.408;2023-07-09T11:39:23;28.20;65.80
14014;DHT22;49110;52.584;13.408;2023-07-09T11:40:26;28.30;64.40
14014;DHT22;49110;52.584;13.408;2023-07-09T11:41:45;28.30;64.40
14014;DHT22;49110;52.584;13.408;2023-07-09T11:42:55;28.40;64.60
14014;DHT22;49110;52.584;13.408;2023-07-09T11:45:26;28.50;63.00
14014;DHT22;49110;52.584;13.408;2023-07-09T11:46:28;28.50;63.20
14014;DHT22;49110;52.584;13.408;2023-07-09T11:47:33;28.50;61.70
14014;DHT22;49110;52.584;13.408;2023-07-09T11:48:36;28.60;61.90
14014;DHT22;49110;52.584;13.408;2023-07-09T11:50:52;28.50;61.00
14014;DHT22;49110;52.584;13.408;2023-07-09T11:51:59;28.60;61.80
14014;DHT22;49110;52.584;13.408;2023-07-09T11:53:05;28.60;61.30
14014;DHT22;49110;52.584;13.408;2023-07-09T11:54:14;28.60;60.60
14014;DHT22;49110;52.584;13.408;2023-07-09T11:55:27;28.60;59.70
14014;DHT22;49110;52.584;13.408;2023-07-09T11:56:28;28.70;60.20
14014;DHT22;49110;52.584;13.408;2023-07-09T11:57:29;28.70;60.30
14014;DHT22;49110;52.584;13.408;2023-07-09T11:58:30;28.80;59.10
14014;DHT22;49110;52.584;13.408;2023-07-09T11:59:38;28.80;58.80
14014;DHT22;49110;52.584;13.408;2023-07-09T12:00:41;28.90;59.60
14014;DHT22;49110;52.584;13.408;2023-07-09T12:01:44;28.80;59.50
14014;DHT22;49110;52.584;13.408;2023-07-09T12:02:45;28.80;60.20
14014;DHT22;49110;52.584;13.408;2023-07-09T12:03:46;28.80;59.70
14014;DHT22;49110;52.584;13.408;2023-07-09T12:04:49;28.80;59.50
14014;DHT22;49110;52.584;13.408;2023-07-09T12:05:59;28.80;59.70
14014;DHT22;49110;52.584;13.408;2023-07-09T12:07:01;28.80;60.00
14014;DHT22;49110;52.584;13.408;2023-07-09T12:08:02;28.80;59.90
14014;DHT22;49110;52.584;13.408;2023-07-09T12:09:02;28.80;59.50
14014;DHT22;49110;52.584;13.408;2023-07-09T12:10:18;28.80;58.50
14014;DHT22;49110;52.584;13.408;2023-07-09T12:12:26;28.90;59.10
14014;DHT22;49110;52.584;13.408;2023-07-09T12:13:26;28.90;58.10
14014;DHT22;49110;52.584;13.408;2023-07-09T12:14:27;29.00;58.10
14014;DHT22;49110;52.584;13.408;2023-07-09T12:15:29;29.00;58.30
14014;DHT22;49110;52.584;13.408;2023-07-09T12:16:40;29.00;57.10
14014;DHT22;49110;52.584;13.408;2023-07-09T12:17:41;29.10;57.20
14014;DHT22;49110;52.584;13.408;2023-07-09T12:18:41;29.10;58.10
14014;DHT22;49110;52.584;13.408;2023-07-09T12:19:42;29.20;58.30
14014;DHT22;49110;52.584;13.408;2023-07-09T12:20:48;29.20;58.50
14014;DHT22;49110;52.584;13.408;2023-07-09T12:21:53;29.10;57.00
14014;DHT22;49110;52.584;13.408;2023-07-09T12:22:55;29.10;57.30
14014;DHT22;49110;52.584;13.408;2023-07-09T12:23:56;29.10;58.00
14014;DHT22;49110;52.584;13.408;2023-07-09T12:24:56;29.10;57.40
14014;DHT22;49110;52.584;13.408;2023-07-09T12:26:02;29.10;57.90
14014;DHT22;49110;52.584;13.408;2023-07-09T12:27:17;29.20;58.00
14014;DHT22;49110;52.584;13.408;2023-07-09T12:28:18;29.10;58.20
14014;DHT22;49110;52.584;13.408;2023-07-09T12:29:19;29.10;58.50
14014;DHT22;49110;52.584;13.408;2023-07-09T12:30:20;29.10;58.30
14014;DHT22;49110;52.584;13.408;2023-07-09T12:31:26;29.10;57.80
14014;DHT22;49110;52.584;13.408;2023-07-09T12:32:27;29.20;55.80
14014;DHT22;49110;52.584;13.408;2023-07-09T12:33:28;29.20;55.70
14014;DHT22;49110;52.584;13.408;2023-07-09T12:34:31;29.20;56.60
14014;DHT22;49110;52.584;13.408;2023-07-09T12:35:32;29.30;57.70
14014;DHT22;49110;52.584;13.408;2023-07-09T12:36:35;29.20;57.40
14014;DHT22;49110;52.584;13.408;2023-07-09T12:37:37;29.30;56.60
14014;DHT22;49110;52.584;13.408;2023-07-09T12:38:42;29.20;56.30
14014;DHT22;49110;52.584;13.408;2023-07-09T12:39:43;29.20;57.60
14014;DHT22;49110;52.584;13.408;2023-07-09T12:40:44;29.20;57.70
14014;DHT22;49110;52.584;13.408;2023-07-09T12:41:45;29.20;57.50
14014;DHT22;49110;52.584;13.408;2023-07-09T12:42:46;29.30;56.20
14014;DHT22;49110;52.584;13.408;2023-07-09T12:43:47;29.30;56.00
14014;DHT22;49110;52.584;13.408;2023-07-09T12:44:48;29.30;54.50
14014;DHT22;49110;52.584;13.408;2023-07-09T12:45:50;29.30;54.80
14014;DHT22;49110;52.584;13.408;2023-07-09T12:46:52;29.30;55.00
14014;DHT22;49110;52.584;13.408;2023-07-09T12:47:53;29.30;55.00
14014;DHT22;49110;52.584;13.408;2023-07-09T12:48:55;29.30;55.10
14014;DHT22;49110;52.584;13.408;2023-07-09T12:50:09;29.30;55.50
14014;DHT22;49110;52.584;13.408;2023-07-09T12:51:20;29.30;55.50
14014;DHT22;49110;52.584;13.408;2023-07-09T12:52:22;29.20;56.10
14014;DHT22;49110;52.584;13.408;2023-07-09T12:53:29;29.20;61.40
14014;DHT22;49110;52.584;13.408;2023-07-09T12:54:30;29.00;57.10
14014;DHT22;49110;52.584;13.408;2023-07-09T12:55:38;29.20;57.60
14014;DHT22;49110;52.584;13.408;2023-07-09T12:56:40;29.20;57.20
14014;DHT22;49110;52.584;13.408;2023-07-09T12:57:40;29.30;56.60
14014;DHT22;49110;52.584;13.408;2023-07-09T12:58:42;29.30;56.10
14014;DHT22;49110;52.584;13.408;2023-07-09T12:59:45;29.30;56.30
14014;DHT22;49110;52.584;13.408;2023-07-09T13:00:50;29.30;55.00
14014;DHT22;49110;52.584;13.408;2023-07-09T13:02:16;29.40;54.60
14014;DHT22;49110;52.584;13.408;2023-07-09T13:03:29;29.40;54.30
14014;DHT22;49110;52.584;13.408;2023-07-09T13:04:36;29.40;55.00
14014;DHT22;49110;52.584;13.408;2023-07-09T13:05:37;29.40;55.70
14014;DHT22;49110;52.584;13.408;2023-07-09T13:06:38;29.40;55.10
14014;DHT22;49110;52.584;13.408;2023-07-09T13:07:40;29.40;55.00
14014;DHT22;49110;52.584;13.408;2023-07-09T13:08:43;29.40;54.40
14014;DHT22;49110;52.584;13.408;2023-07-09T13:09:50;29.40;54.30
14014;DHT22;49110;52.584;13.408;2023-07-09T13:10:51;29.40;54.30
14014;DHT22;49110;52.584;13.408;2023-07-09T13:11:57;29.40;54.50
14014;DHT22;49110;52.584;13.408;2023-07-09T13:13:03;29.40;54.80
14014;DHT22;49110;52.584;13.408;2023-07-09T13:14:11;29.40;55.00
14014;DHT22;49110;52.584;13.408;2023-07-09T13:16:24;29.50;54.10
14014;DHT22;49110;52.584;13.408;2023-07-09T13:17:29;29.50;54.70
14014;DHT22;49110;52.584;13.408;2023-07-09T13:18:30;29.50;54.80
14014;DHT22;49110;52.584;13.408;2023-07-09T13:19:32;29.50;54.40
14014;DHT22;49110;52.584;13.408;2023-07-09T13:20:38;29.50;54.60
14014;DHT22;49110;52.584;13.408;2023-07-09T13:21:40;29.50;54.30
14014;DHT22;49110;52.584;13.408;2023-07-09T13:22:41;29.50;54.30
14014;DHT22;49110;52.584;13.408;2023-07-09T13:23:42;29.60;54.40
14014;DHT22;49110;52.584;13.408;2023-07-09T13:24:44;29.60;54.50
14014;DHT22;49110;52.584;13.408;2023-07-09T13:25:45;29.50;54.30
14014;DHT22;49110;52.584;13.408;2023-07-09T13:26:46;29.50;54.30
14014;DHT22;49110;52.584;13.408;2023-07-09T13:27:47;29.50;54.10
14014;DHT22;49110;52.584;13.408;2023-07-09T13:28:47;29.50;54.40
14014;DHT22;49110;52.584;13.408;2023-07-09T13:29:50;29.50;54.60
14014;DHT22;49110;52.584;13.408;2023-07-09T13:30:52;29.50;55.20
14014;DHT22;49110;52.584;13.408;2023-07-09T13:31:53;29.50;54.80
14014;DHT22;49110;52.584;13.408;2023-07-09T13:32:55;29.50;53.90
14014;DHT22;49110;52.584;13.408;2023-07-09T13:33:58;29.50;54.10
14014;DHT22;49110;52.584;13.408;2023-07-09T13:34:59;29.50;54.60
14014;DHT22;49110;52.584;13.408;2023-07-09T13:36:00;29.50;55.10
14014;DHT22;49110;52.584;13.408;2023-07-09T13:37:00;29.50;54.10
14014;DHT22;49110;52.584;13.408;2023-07-09T13:38:01;29.60;54.50
14014;DHT22;49110;52.584;13.408;2023-07-09T13:39:04;29.60;54.40
14014;DHT22;49110;52.584;13.408;2023-07-09T13:40:07;29.60;54.70
14014;DHT22;49110;52.584;13.408;2023-07-09T13:41:14;29.60;55.40
14014;DHT22;49110;52.584;13.408;2023-07-09T13:42:17;29.70;55.20
14014;DHT22;49110;52.584;13.408;2023-07-09T13:43:31;29.70;53.70
14014;DHT22;49110;52.584;13.408;2023-07-09T13:44:31;29.70;54.00
14014;DHT22;49110;52.584;13.408;2023-07-09T13:45:32;29.80;53.90
14014;DHT22;49110;52.584;13.408;2023-07-09T13:46:33;29.80;54.30
14014;DHT22;49110;52.584;13.408;2023-07-09T13:47:33;29.80;54.60
14014;DHT22;49110;52.584;13.408;2023-07-09T13:48:37;29.80;54.80
14014;DHT22;49110;52.584;13.408;2023-07-09T13:49:37;29.80;55.20
14014;DHT22;49110;52.584;13.408;2023-07-09T13:50:38;29.80;55.10
14014;DHT22;49110;52.584;13.408;2023-07-09T13:51:39;29.80;55.30
14014;DHT22;49110;52.584;13.408;2023-07-09T13:52:39;29.90;55.30
14014;DHT22;49110;52.584;13.408;2023-07-09T13:53:40;29.90;56.00
14014;DHT22;49110;52.584;13.408;2023-07-09T13:54:41;29.90;56.00
14014;DHT22;49110;52.584;13.408;2023-07-09T13:55:42;29.90;55.90
14014;DHT22;49110;52.584;13.408;2023-07-09T13:56:43;29.90;55.60
14014;DHT22;49110;52.584;13.408;2023-07-09T13:57:44;29.90;55.40
14014;DHT22;49110;52.584;13.408;2023-07-09T13:58:45;29.90;55.20
14014;DHT22;49110;52.584;13.408;2023-07-09T13:59:45;29.90;55.30
14014;DHT22;49110;52.584;13.408;2023-07-09T14:00:48;29.90;54.90
14014;DHT22;49110;52.584;13.408;2023-07-09T14:01:52;30.00;55.40
14014;DHT22;49110;52.584;13.408;2023-07-09T14:02:53;29.80;58.50
14014;DHT22;49110;52.584;13.408;2023-07-09T14:03:57;29.80;54.40
14014;DHT22;49110;52.584;13.408;2023-07-09T14:05:03;29.80;53.90
14014;DHT22;49110;52.584;13.408;2023-07-09T14:06:04;29.90;54.30
14014;DHT22;49110;52.584;13.408;2023-07-09T14:07:24;29.90;54.50
14014;DHT22;49110;52.584;13.408;2023-07-09T14:08:25;29.90;54.60
14014;DHT22;49110;52.584;13.408;2023-07-09T14:09:25;30.00;54.20
14014;DHT22;49110;52.584;13.408;2023-07-09T14:10:26;30.00;53.60
14014;DHT22;49110;52.584;13.408;2023-07-09T14:11:26;30.10;53.80
14014;DHT22;49110;52.584;13.408;2023-07-09T14:12:28;30.20;53.90
14014;DHT22;49110;52.584;13.408;2023-07-09T14:13:30;30.20;54.00
14014;DHT22;49110;52.584;13.408;2023-07-09T14:14:33;30.20;54.10
14014;DHT22;49110;52.584;13.408;2023-07-09T14:15:33;30.20;54.60
14014;DHT22;49110;52.584;13.408;2023-07-09T14:16:33;30.30;55.00
14014;DHT22;49110;52.584;13.408;2023-07-09T14:17:34;30.30;55.30
14014;DHT22;49110;52.584;13.408;2023-07-09T14:18:34;30.30;55.40
14014;DHT22;49110;52.584;13.408;2023-07-09T14:19:35;30.30;55.00
14014;DHT22;49110;52.584;13.408;2023-07-09T14:20:35;30.30;54.80
14014;DHT22;49110;52.584;13.408;2023-07-09T14:21:36;30.40;54.20
14014;DHT22;49110;52.584;13.408;2023-07-09T14:22:37;30.40;53.50
14014;DHT22;49110;52.584;13.408;2023-07-09T14:23:38;30.30;53.60
14014;DHT22;49110;52.584;13.408;2023-07-09T14:24:38;30.40;54.20
14014;DHT22;49110;52.584;13.408;2023-07-09T14:25:39;30.40;54.50
14014;DHT22;49110;52.584;13.408;2023-07-09T14:26:40;30.40;54.60
14014;DHT22;49110;52.584;13.408;2023-07-09T14:27:40;30.30;54.20
14014;DHT22;49110;52.584;13.408;2023-07-09T14:28:41;30.50;54.40
14014;DHT22;49110;52.584;13.408;2023-07-09T14:29:41;30.50;54.10
14014;DHT22;49110;52.584;13.408;2023-07-09T14:30:42;30.50;55.10
14014;DHT22;49110;52.584;13.408;2023-07-09T14:31:44;30.50;54.60
14014;DHT22;49110;52.584;13.408;2023-07-09T14:32:46;30.40;54.60
14014;DHT22;49110;52.584;13.408;2023-07-09T14:33:47;30.50;54.80
14014;DHT22;49110;52.584;13.408;2023-07-09T14:34:48;30.50;55.10
14014;DHT22;49110;52.584;13.408;2023-07-09T14:35:49;30.50;53.60
14014;DHT22;49110;52.584;13.408;2023-07-09T14:36:51;30.50;53.40
14014;DHT22;49110;52.584;13.408;2023-07-09T14:37:53;30.50;53.60
14014;DHT22;49110;52.584;13.408;2023-07-09T14:38:59;30.60;53.30
14014;DHT22;49110;52.584;13.408;2023-07-09T14:40:00;30.60;53.00
14014;DHT22;49110;52.584;13.408;2023-07-09T14:41:07;30.60;53.20
14014;DHT22;49110;52.584;13.408;2023-07-09T14:42:14;30.70;53.30
14014;DHT22;49110;52.584;13.408;2023-07-09T14:43:16;30.70;53.10
14014;DHT22;49110;52.584;13.408;2023-07-09T14:44:25;30.80;53.60
14014;DHT22;49110;52.584;13.408;2023-07-09T14:45:26;30.80;53.90
14014;DHT22;49110;52.584;13.408;2023-07-09T14:46:30;30.80;52.30
14014;DHT22;49110;52.584;13.408;2023-07-09T14:47:31;30.80;52.80
14014;DHT22;49110;52.584;13.408;2023-07-09T14:48:31;30.80;52.80
14014;DHT22;49110;52.584;13.408;2023-07-09T14:49:32;30.80;52.10